Time;durP1;ratioP1;P1;durP2;ratioP2;P2;SDS_P1;SDS_P2;PMS_P1;PMS_P2;Temp;Humidity;BMP_temperature;BMP_pressure;BME280_temperature;BME280_humidity;BME280_pressure;Samples;Min_cycle;Max_cycle;Signal;HPM_P1;HPM_P2
2021/05/12 00:00:17;;;;;;;3.27;2.97;;;12.20;99.90;;;;;;5004870;28;21255;-93
2021/05/12 00:02:43;;;;;;;4.17;2.77;;;12.20;99.90;;;;;;5003385;28;21154;-94
2021/05/12 00:05:11;;;;;;;2.30;2.07;;;12.20;99.90;;;;;;5011282;28;20644;-94
2021/05/12 00:07:39;;;;;;;3.73;2.57;;;12.20;99.90;;;;;;5009855;28;20635;-94
2021/05/12 00:10:07;;;;;;;2.70;2.50;;;12.20;99.90;;;;;;5010541;28;20659;-95
2021/05/12 00:12:35;;;;;;;2.43;2.00;;;12.10;99.90;;;;;;5009988;28;20632;-94
2021/05/12 00:15:01;;;;;;;2.37;1.97;;;12.10;99.90;;;;;;4988621;28;20620;-94
2021/05/12 00:17:29;;;;;;;2.37;2.17;;;12.10;99.90;;;;;;5005295;28;20696;-93
2021/05/12 00:19:58;;;;;;;2.67;2.47;;;12.20;99.90;;;;;;5006788;28;20667;-92
2021/05/12 00:22:36;;;;;;;2.40;2.20;;;12.10;99.90;;;;;;5001186;28;20719;-91
2021/05/12 00:25:06;;;;;;;2.90;2.43;;;12.20;99.90;;;;;;5011045;28;20635;-91
2021/05/12 00:27:32;;;;;;;2.30;1.80;;;12.10;99.90;;;;;;5011150;28;20631;-93
2021/05/12 00:29:59;;;;;;;2.80;2.30;;;12.20;99.90;;;;;;5011743;28;21206;-95
2021/05/12 00:32:25;;;;;;;2.17;2.07;;;12.10;99.90;;;;;;5013614;28;20681;-95
2021/05/12 00:34:54;;;;;;;5.43;2.43;;;12.10;99.90;;;;;;5008636;28;20643;-95
2021/05/12 00:37:21;;;;;;;2.23;2.07;;;12.10;99.90;;;;;;5010413;28;20634;-95
2021/05/12 00:39:48;;;;;;;2.57;2.37;;;12.10;99.90;;;;;;5008656;28;20774;-94
2021/05/12 00:42:16;;;;;;;2.60;2.40;;;12.20;99.90;;;;;;5009977;28;21181;-95
2021/05/12 00:44:42;;;;;;;2.63;2.23;;;12.10;99.90;;;;;;5006331;28;20677;-93
2021/05/12 00:47:10;;;;;;;3.83;3.43;;;12.10;99.90;;;;;;5008175;28;20636;-94
2021/05/12 00:49:36;;;;;;;4.60;2.60;;;12.20;99.90;;;;;;5009374;28;21023;-94
2021/05/12 00:52:04;;;;;;;2.70;2.20;;;12.20;99.90;;;;;;5008410;28;20667;-95
2021/05/12 00:54:32;;;;;;;2.30;1.63;;;12.30;99.90;;;;;;5013419;28;21161;-95
2021/05/12 00:56:58;;;;;;;1.93;1.70;;;12.20;99.90;;;;;;5008204;28;20663;-94
2021/05/12 00:59:33;;;;;;;2.20;1.77;;;12.20;99.90;;;;;;5009946;28;20671;-94
2021/05/12 01:02:00;;;;;;;1.80;1.70;;;12.20;99.90;;;;;;5008527;28;21044;-93
2021/05/12 01:04:26;;;;;;;1.83;1.73;;;12.20;99.90;;;;;;5011898;28;20634;-94
2021/05/12 01:06:59;;;;;;;3.20;1.40;;;12.10;99.90;;;;;;5011867;28;20639;-91
2021/05/12 01:09:26;;;;;;;2.03;1.83;;;12.00;99.90;;;;;;5010553;28;20639;-92
2021/05/12 01:11:52;;;;;;;5.80;1.90;;;11.90;99.90;;;;;;5013611;28;21013;-93
2021/05/12 01:14:19;;;;;;;2.10;2.00;;;11.90;99.90;;;;;;5006809;28;20693;-94
2021/05/12 01:16:47;;;;;;;3.47;1.77;;;11.90;99.90;;;;;;5007614;28;20636;-95
2021/05/12 01:19:15;;;;;;;2.83;1.80;;;11.90;99.90;;;;;;5005936;28;20638;-94
2021/05/12 01:21:43;;;;;;;2.50;1.57;;;11.70;99.90;;;;;;5007720;28;20658;-94
2021/05/12 01:24:10;;;;;;;2.60;1.40;;;11.80;99.90;;;;;;5012174;28;20642;-93
2021/05/12 01:26:37;;;;;;;3.37;1.83;;;11.80;99.90;;;;;;5014381;28;20644;-95
2021/05/12 01:29:04;;;;;;;3.63;1.73;;;11.80;99.90;;;;;;5010237;28;20640;-94
2021/05/12 01:31:43;;;;;;;3.10;1.70;;;11.80;99.90;;;;;;5011547;28;20668;-95
2021/05/12 01:34:13;;;;;;;2.17;1.40;;;11.70;99.90;;;;;;5010116;28;20636;-95
2021/05/12 01:36:40;;;;;;;2.57;1.77;;;11.70;99.90;;;;;;5015875;28;20650;-95
2021/05/12 01:39:08;;;;;;;2.20;1.50;;;11.70;99.90;;;;;;5014473;28;20646;-96
2021/05/12 01:41:35;;;;;;;2.27;1.50;;;11.70;99.90;;;;;;5017561;28;21274;-95
2021/05/12 01:44:05;;;;;;;1.67;1.40;;;11.70;99.90;;;;;;5016583;28;20659;-96
2021/05/12 01:46:32;;;;;;;3.60;1.13;;;11.80;99.90;;;;;;5017873;28;20632;-95
2021/05/12 01:49:01;;;;;;;1.93;1.60;;;11.60;99.90;;;;;;5015796;28;20640;-96
2021/05/12 01:51:27;;;;;;;3.03;1.37;;;11.60;99.90;;;;;;5013235;28;20675;-95
2021/05/12 01:56:50;;;;;;;2.40;1.70;;;11.50;99.90;;;;;;5084044;27;20714;-93
2021/05/12 01:59:16;;;;;;;4.53;2.07;;;11.60;99.90;;;;;;5097094;28;20621;-93
2021/05/12 02:01:43;;;;;;;3.37;1.70;;;11.50;99.90;;;;;;5080129;28;21237;-94
2021/05/12 02:04:09;;;;;;;1.90;1.40;;;11.50;99.90;;;;;;5083969;28;20688;-93
2021/05/12 02:06:38;;;;;;;1.50;1.37;;;11.50;99.90;;;;;;5086087;28;20667;-92
2021/05/12 02:09:07;;;;;;;3.90;1.77;;;11.50;99.90;;;;;;5083712;28;20634;-92
2021/05/12 02:11:35;;;;;;;3.60;2.00;;;11.40;99.90;;;;;;5087247;28;20645;-92
2021/05/12 02:14:02;;;;;;;2.70;1.60;;;11.50;99.90;;;;;;5085139;28;20632;-93
2021/05/12 02:16:31;;;;;;;2.10;1.73;;;11.50;99.90;;;;;;5082703;28;20664;-93
2021/05/12 02:18:59;;;;;;;2.60;1.70;;;11.50;99.90;;;;;;5100111;28;20635;-93
2021/05/12 02:21:26;;;;;;;2.53;2.00;;;11.40;99.90;;;;;;5105179;28;20638;-94
2021/05/12 02:23:54;;;;;;;2.87;1.90;;;11.40;99.90;;;;;;5104428;28;20695;-93
2021/05/12 02:26:20;;;;;;;2.70;2.30;;;11.40;99.90;;;;;;5107814;28;20676;-94
2021/05/12 02:28:47;;;;;;;3.70;2.40;;;11.30;99.90;;;;;;5106918;28;20632;-94
2021/05/12 02:31:15;;;;;;;3.90;2.70;;;11.40;99.90;;;;;;5100662;28;20644;-93
2021/05/12 02:33:42;;;;;;;3.00;2.80;;;11.30;99.90;;;;;;5081531;28;20646;-93
2021/05/12 02:36:08;;;;;;;4.37;3.23;;;11.20;99.90;;;;;;5080688;28;20734;-93
2021/05/12 02:38:35;;;;;;;2.63;2.43;;;11.20;99.90;;;;;;5088080;28;21251;-92
2021/05/12 02:41:01;;;;;;;4.20;3.30;;;11.20;99.90;;;;;;5081033;28;20629;-93
2021/05/12 02:43:28;;;;;;;7.63;5.43;;;11.20;99.90;;;;;;5084526;28;20616;-93
2021/05/12 02:45:54;;;;;;;3.43;3.10;;;11.20;99.90;;;;;;5077722;28;20641;-93
2021/05/12 02:48:21;;;;;;;3.50;3.20;;;11.20;99.90;;;;;;5076574;28;20639;-93
2021/05/12 02:50:48;;;;;;;6.03;3.90;;;11.20;99.90;;;;;;5083501;28;20620;-93
2021/05/12 02:53:15;;;;;;;4.87;3.33;;;11.20;99.90;;;;;;5083825;28;20628;-93
2021/05/12 02:55:41;;;;;;;3.50;3.20;;;11.20;99.90;;;;;;5090602;28;20675;-92
2021/05/12 02:58:08;;;;;;;3.73;3.43;;;11.20;99.90;;;;;;5080819;28;20656;-94
2021/05/12 03:00:36;;;;;;;4.30;4.00;;;11.20;99.90;;;;;;5095968;28;20723;-93
2021/05/12 03:03:03;;;;;;;4.93;4.50;;;11.20;99.90;;;;;;5085864;28;20609;-91
2021/05/12 03:05:31;;;;;;;4.93;4.27;;;11.20;99.90;;;;;;5090487;28;20664;-93
2021/05/12 03:07:57;;;;;;;5.17;4.57;;;11.20;99.90;;;;;;5071769;28;20637;-93
2021/05/12 03:10:24;;;;;;;5.33;4.80;;;11.10;99.90;;;;;;5071178;28;20624;-93
2021/05/12 03:12:51;;;;;;;5.57;5.07;;;11.20;99.90;;;;;;5073870;28;20640;-94
2021/05/12 03:15:21;;;;;;;5.80;5.20;;;11.20;99.90;;;;;;5073570;28;20668;-92
2021/05/12 03:17:47;;;;;;;4.97;4.50;;;11.20;99.90;;;;;;5069979;28;21221;-92
2021/05/12 03:20:16;;;;;;;4.70;4.30;;;11.20;99.90;;;;;;5073074;28;20631;-92
2021/05/12 03:22:45;;;;;;;5.50;5.00;;;11.20;99.90;;;;;;5071957;28;20728;-94
2021/05/12 03:25:19;;;;;;;8.03;5.30;;;11.20;99.90;;;;;;5054825;28;20649;-95
2021/05/12 03:27:46;;;;;;;7.10;6.03;;;11.20;99.90;;;;;;5076893;28;20706;-96
2021/05/12 03:30:16;;;;;;;7.37;5.00;;;11.20;99.90;;;;;;5090897;28;20648;-96
2021/05/12 03:32:43;;;;;;;5.73;5.23;;;11.20;99.90;;;;;;5086430;28;20696;-95
2021/05/12 03:35:11;;;;;;;6.07;5.43;;;11.20;99.90;;;;;;5090959;28;20680;-95
2021/05/12 03:37:39;;;;;;;7.33;6.30;;;11.20;99.90;;;;;;5096707;28;20611;-95
2021/05/12 03:40:09;;;;;;;8.27;7.27;;;11.20;99.90;;;;;;5100238;28;20640;-91
2021/05/12 03:42:36;;;;;;;7.07;6.33;;;11.20;99.90;;;;;;5090020;28;20644;-93
2021/05/12 03:45:04;;;;;;;6.53;5.90;;;11.20;99.90;;;;;;5088520;28;20662;-92
2021/05/12 03:47:31;;;;;;;7.00;6.33;;;11.20;99.90;;;;;;5085816;28;20672;-92
2021/05/12 03:49:57;;;;;;;7.63;7.03;;;11.30;99.90;;;;;;5089890;28;20626;-92
2021/05/12 03:52:23;;;;;;;7.47;6.77;;;11.30;99.90;;;;;;5090189;28;20621;-94
2021/05/12 03:54:50;;;;;;;6.73;6.13;;;11.30;99.90;;;;;;5093188;28;20636;-94
2021/05/12 03:57:18;;;;;;;7.87;7.17;;;11.30;99.90;;;;;;5093121;28;20625;-94
2021/05/12 03:59:44;;;;;;;7.40;6.70;;;11.30;99.90;;;;;;5089627;28;20619;-94
2021/05/12 04:02:11;;;;;;;9.40;8.50;;;11.30;99.90;;;;;;5091623;28;20605;-93
2021/05/12 04:04:52;;;;;;;11.47;8.00;;;11.30;99.90;;;;;;5089885;28;20726;-94
2021/05/12 04:07:18;;;;;;;9.00;8.10;;;11.30;99.90;;;;;;5077684;28;20625;-94
2021/05/12 04:09:45;;;;;;;10.60;8.00;;;11.30;99.90;;;;;;5076173;28;20652;-94
2021/05/12 04:12:11;;;;;;;9.13;7.90;;;11.20;99.90;;;;;;5075794;28;20630;-93
2021/05/12 04:14:38;;;;;;;9.70;8.87;;;11.30;99.90;;;;;;5074048;28;20964;-92
2021/05/12 04:17:05;;;;;;;9.63;8.10;;;11.30;99.90;;;;;;5068785;28;20705;-94
2021/05/12 04:19:32;;;;;;;9.80;9.00;;;11.30;99.90;;;;;;5070987;28;20667;-91
2021/05/12 04:21:58;;;;;;;10.30;9.33;;;11.30;99.90;;;;;;5079875;28;20659;-94
2021/05/12 04:24:25;;;;;;;9.40;8.50;;;11.30;99.90;;;;;;5069015;28;20633;-90
2021/05/12 04:26:53;;;;;;;10.20;9.30;;;11.40;99.90;;;;;;5070487;28;20618;-90
2021/05/12 04:29:27;;;;;;;11.90;10.70;;;11.30;99.90;;;;;;5071249;28;20709;-90
2021/05/12 04:32:07;;;;;;;10.80;8.93;;;11.30;99.90;;;;;;5070770;28;20625;-91
2021/05/12 04:34:39;;;;;;;11.00;9.87;;;11.40;99.90;;;;;;5072489;28;20712;-91
2021/05/12 04:37:08;;;;;;;11.43;10.27;;;11.40;99.90;;;;;;5077257;28;20628;-91
2021/05/12 04:39:41;;;;;;;11.20;10.10;;;11.30;99.90;;;;;;5073007;28;20641;-91
2021/05/12 04:42:09;;;;;;;12.83;10.80;;;11.40;99.90;;;;;;5075425;28;20633;-92
2021/05/12 04:44:36;;;;;;;12.37;10.03;;;11.40;99.90;;;;;;5080340;28;20621;-92
2021/05/12 04:47:15;;;;;;;10.93;9.60;;;11.40;99.90;;;;;;5071294;28;20622;-92
2021/05/12 04:49:43;;;;;;;9.90;9.00;;;11.40;99.90;;;;;;5073322;28;20996;-91
2021/05/12 04:52:11;;;;;;;10.10;9.30;;;11.50;99.90;;;;;;5064576;28;20736;-92
2021/05/12 04:54:38;;;;;;;11.03;10.00;;;11.40;99.90;;;;;;5070661;28;20629;-92
2021/05/12 04:57:10;;;;;;;10.17;9.17;;;11.50;99.90;;;;;;5070551;28;20640;-92
2021/05/12 04:59:37;;;;;;;10.40;9.40;;;11.40;99.90;;;;;;5069974;28;20665;-92
2021/05/12 05:02:05;;;;;;;12.60;8.90;;;11.50;99.90;;;;;;5067465;28;20632;-91
2021/05/12 05:04:32;;;;;;;10.83;9.83;;;11.50;99.90;;;;;;5070771;28;20636;-92
2021/05/12 05:07:02;;;;;;;9.20;8.30;;;11.50;99.90;;;;;;5069405;28;20664;-93
2021/05/12 05:09:28;;;;;;;9.60;8.37;;;11.50;99.90;;;;;;5066119;28;20710;-93
2021/05/12 05:11:56;;;;;;;8.87;7.77;;;11.50;99.90;;;;;;5069483;28;20644;-94
2021/05/12 05:14:22;;;;;;;8.87;7.97;;;11.60;99.90;;;;;;5069425;28;20640;-92
2021/05/12 05:16:49;;;;;;;9.70;8.73;;;11.60;99.90;;;;;;5064829;28;20661;-93
2021/05/12 05:19:16;;;;;;;12.47;6.73;;;11.60;99.90;;;;;;5065533;28;20677;-92
2021/05/12 05:21:43;;;;;;;8.30;7.60;;;11.60;99.90;;;;;;5064424;28;20653;-93
2021/05/12 05:24:16;;;;;;;7.70;7.00;;;11.60;99.90;;;;;;5068908;28;21168;-92
2021/05/12 05:26:44;;;;;;;9.87;8.40;;;11.60;99.90;;;;;;5068751;28;21397;-92
2021/05/12 05:29:12;;;;;;;8.80;6.70;;;11.60;99.90;;;;;;5067977;28;20660;-92
2021/05/12 05:31:38;;;;;;;6.80;6.20;;;11.60;99.90;;;;;;5065523;28;20891;-92
2021/05/12 05:34:05;;;;;;;7.43;6.60;;;11.60;99.90;;;;;;5062439;28;21044;-92
2021/05/12 05:36:31;;;;;;;10.00;6.37;;;11.60;99.90;;;;;;5066624;28;20665;-92
2021/05/12 05:38:58;;;;;;;6.50;6.00;;;11.50;99.90;;;;;;5051169;28;20623;-93
2021/05/12 05:41:25;;;;;;;6.97;6.37;;;11.50;99.90;;;;;;5067095;28;20705;-93
2021/05/12 05:43:51;;;;;;;10.43;6.87;;;11.50;99.90;;;;;;5068151;28;20627;-91
2021/05/12 05:46:21;;;;;;;7.90;7.10;;;11.50;99.90;;;;;;5063639;28;20646;-91
2021/05/12 05:48:48;;;;;;;8.40;6.60;;;11.60;99.90;;;;;;5071923;28;20628;-92
2021/05/12 05:51:16;;;;;;;6.13;5.63;;;11.50;99.90;;;;;;5074916;28;20653;-92
2021/05/12 05:53:44;;;;;;;7.30;6.00;;;11.50;99.90;;;;;;5071510;28;20635;-93
2021/05/12 05:56:12;;;;;;;9.50;6.10;;;11.50;99.90;;;;;;5065450;28;20658;-93
2021/05/12 05:58:39;;;;;;;6.37;5.77;;;11.50;99.90;;;;;;5061991;28;20625;-91
2021/05/12 06:01:25;;;;;;;6.87;6.27;;;11.50;99.90;;;;;;5064084;28;20967;-91
2021/05/12 06:03:53;;;;;;;12.27;6.03;;;11.60;99.90;;;;;;5065831;28;20663;-92
2021/05/12 06:06:19;;;;;;;6.10;5.57;;;11.60;99.90;;;;;;5078105;28;20637;-91
2021/05/12 06:08:53;;;;;;;6.00;5.40;;;11.60;99.90;;;;;;5067183;28;20686;-92
2021/05/12 06:11:27;;;;;;;7.20;5.70;;;11.60;99.90;;;;;;5065950;28;20633;-91
2021/05/12 06:13:55;;;;;;;7.10;5.27;;;11.70;99.90;;;;;;5068661;28;20661;-92
2021/05/12 06:16:22;;;;;;;5.27;4.77;;;11.60;99.90;;;;;;5060961;28;21297;-92
2021/05/12 06:18:51;;;;;;;6.83;5.83;;;11.70;99.90;;;;;;5058755;28;20633;-91
2021/05/12 06:21:18;;;;;;;6.10;5.50;;;11.80;99.90;;;;;;5078406;28;21141;-92
2021/05/12 06:23:45;;;;;;;6.00;5.07;;;11.70;99.90;;;;;;5068446;28;20617;-93
2021/05/12 06:26:17;;;;;;;5.90;5.33;;;11.70;99.90;;;;;;5063669;28;20608;-92
2021/05/12 06:28:47;;;;;;;6.70;4.77;;;11.60;99.90;;;;;;5061847;28;20677;-92
2021/05/12 06:31:14;;;;;;;6.30;5.20;;;11.70;99.90;;;;;;5064876;28;20681;-89
2021/05/12 06:33:45;;;;;;;5.50;4.40;;;11.70;99.90;;;;;;5066966;28;20616;-92
2021/05/12 06:36:19;;;;;;;4.90;4.43;;;11.60;99.90;;;;;;5066702;28;20657;-90
2021/05/12 06:38:47;;;;;;;6.13;4.10;;;11.60;99.90;;;;;;5071928;28;21282;-91
2021/05/12 06:41:18;;;;;;;4.73;4.20;;;11.70;99.90;;;;;;5072509;28;20630;-91
2021/05/12 06:43:50;;;;;;;4.30;3.90;;;11.70;99.90;;;;;;5074279;28;20625;-92
2021/05/12 06:46:23;;;;;;;4.47;3.57;;;11.70;99.90;;;;;;5075603;28;20638;-91
2021/05/12 06:48:52;;;;;;;5.17;3.43;;;11.70;99.90;;;;;;5080053;28;20648;-91
2021/05/12 06:51:21;;;;;;;3.63;3.33;;;11.60;99.90;;;;;;5072152;28;20705;-91
2021/05/12 06:53:48;;;;;;;3.60;3.20;;;11.70;99.90;;;;;;5068985;28;20605;-92
2021/05/12 06:56:15;;;;;;;4.03;3.63;;;11.70;99.90;;;;;;5070566;28;20660;-90
2021/05/12 06:58:42;;;;;;;4.37;3.33;;;11.60;99.90;;;;;;5070750;28;20653;-90
2021/05/12 07:01:13;;;;;;;4.43;3.70;;;11.70;99.90;;;;;;5069164;28;20634;-90
2021/05/12 07:03:42;;;;;;;4.97;3.87;;;11.70;99.90;;;;;;5069172;28;20640;-91
2021/05/12 07:06:09;;;;;;;4.20;3.60;;;11.60;99.90;;;;;;5068711;28;20629;-90
2021/05/12 07:08:37;;;;;;;4.93;4.37;;;11.70;99.90;;;;;;5078951;28;20656;-92
2021/05/12 07:11:04;;;;;;;4.40;3.70;;;11.60;99.90;;;;;;5063227;28;20702;-90
2021/05/12 07:13:30;;;;;;;4.47;3.97;;;11.80;99.90;;;;;;5066168;28;20660;-90
2021/05/12 07:15:57;;;;;;;6.53;3.83;;;11.80;99.90;;;;;;5064580;28;20657;-91
2021/05/12 07:18:24;;;;;;;4.17;2.70;;;11.80;99.90;;;;;;5066247;28;20668;-90
2021/05/12 07:20:53;;;;;;;3.70;3.00;;;11.70;99.90;;;;;;5061142;28;20657;-91
2021/05/12 07:23:27;;;;;;;4.57;3.50;;;11.70;99.90;;;;;;5063188;28;20623;-90
2021/05/12 07:25:58;;;;;;;3.87;3.10;;;11.70;99.90;;;;;;5065257;28;21388;-91
2021/05/12 07:28:25;;;;;;;5.30;3.40;;;11.80;99.90;;;;;;5062217;28;20748;-90
2021/05/12 07:30:52;;;;;;;4.93;4.20;;;11.70;99.90;;;;;;5062672;28;20647;-90
2021/05/12 07:33:19;;;;;;;5.60;3.33;;;11.70;99.90;;;;;;5065295;28;20668;-90
2021/05/12 07:35:47;;;;;;;3.90;3.50;;;11.70;99.90;;;;;;5065469;28;20659;-91
2021/05/12 07:38:14;;;;;;;5.10;3.50;;;11.70;99.90;;;;;;5064496;28;21155;-91
2021/05/12 07:40:41;;;;;;;3.33;3.03;;;11.70;99.90;;;;;;5062430;28;20691;-91
2021/05/12 07:43:11;;;;;;;4.87;3.67;;;11.60;99.90;;;;;;5064985;28;20663;-91
2021/05/12 07:45:38;;;;;;;6.53;3.20;;;11.60;99.90;;;;;;5068127;28;21232;-91
2021/05/12 07:48:05;;;;;;;3.30;3.00;;;11.70;99.90;;;;;;5060691;28;20625;-90
2021/05/12 07:50:32;;;;;;;4.80;2.70;;;11.60;99.90;;;;;;5063936;28;21039;-89
2021/05/12 07:53:43;;;;;;;4.20;3.20;;;11.60;99.90;;;;;;5062033;28;21219;-91
2021/05/12 07:56:11;;;;;;;3.93;2.60;;;11.60;99.90;;;;;;5045624;28;20673;-90
2021/05/12 07:58:41;;;;;;;9.13;3.80;;;11.70;99.90;;;;;;5065837;28;20664;-91
2021/05/12 08:01:17;;;;;;;4.70;3.17;;;11.60;99.90;;;;;;5064121;28;20644;-91
2021/05/12 08:03:44;;;;;;;4.20;3.40;;;11.60;99.90;;;;;;5066564;28;20661;-90
2021/05/12 08:06:10;;;;;;;5.70;3.57;;;11.60;99.90;;;;;;5067812;28;20633;-90
2021/05/12 08:08:38;;;;;;;8.47;3.93;;;11.50;99.90;;;;;;5064938;28;20637;-91
2021/05/12 08:11:05;;;;;;;5.70;3.60;;;11.50;99.90;;;;;;5066080;28;20635;-90
2021/05/12 08:13:33;;;;;;;7.80;2.97;;;11.50;99.90;;;;;;5066823;28;20641;-91
2021/05/12 08:16:02;;;;;;;3.70;2.67;;;11.60;99.90;;;;;;5069603;28;21214;-89
2021/05/12 08:18:29;;;;;;;4.33;3.47;;;11.60;99.90;;;;;;5066073;28;20620;-91
2021/05/12 08:20:57;;;;;;;3.37;2.77;;;11.60;99.90;;;;;;5064477;28;20652;-92
2021/05/12 08:23:25;;;;;;;4.50;3.50;;;11.60;99.90;;;;;;5062871;28;20629;-91
2021/05/12 08:25:53;;;;;;;6.00;3.00;;;11.50;99.90;;;;;;5064929;28;20657;-94
2021/05/12 08:28:21;;;;;;;4.47;3.00;;;11.60;99.90;;;;;;5063723;28;20629;-92
2021/05/12 08:30:50;;;;;;;5.33;3.63;;;11.50;99.90;;;;;;5067226;28;20661;-90
2021/05/12 08:33:19;;;;;;;6.43;3.93;;;11.60;99.90;;;;;;5068301;28;20633;-92
2021/05/12 08:35:48;;;;;;;4.57;2.47;;;11.60;99.90;;;;;;5063062;28;21250;-88
2021/05/12 08:38:17;;;;;;;5.80;2.93;;;11.60;99.90;;;;;;5063832;28;20639;-90
2021/05/12 08:40:44;;;;;;;5.70;2.80;;;11.60;99.90;;;;;;5064509;28;20657;-90
2021/05/12 08:43:13;;;;;;;7.60;2.90;;;11.70;99.90;;;;;;5061487;28;21644;-89
2021/05/12 08:45:43;;;;;;;3.83;2.57;;;11.60;99.90;;;;;;5066529;28;20613;-89
2021/05/12 08:48:15;;;;;;;5.90;3.07;;;11.70;99.90;;;;;;5064679;28;21179;-88
2021/05/12 08:50:43;;;;;;;6.67;3.27;;;11.60;99.90;;;;;;5065202;28;20667;-90
2021/05/12 08:53:10;;;;;;;3.67;3.13;;;11.60;99.90;;;;;;5066752;28;20620;-90
2021/05/12 08:55:37;;;;;;;3.37;2.77;;;11.80;99.90;;;;;;5066607;28;21621;-90
2021/05/12 08:58:04;;;;;;;4.47;2.87;;;11.70;99.90;;;;;;5062993;28;20948;-91
2021/05/12 09:00:33;;;;;;;7.50;3.00;;;11.60;99.90;;;;;;5061776;28;20674;-90
2021/05/12 09:03:00;;;;;;;4.70;2.80;;;11.70;99.90;;;;;;5065826;28;20637;-89
2021/05/12 09:05:32;;;;;;;3.50;2.97;;;11.80;99.90;;;;;;5068380;28;20716;-89
2021/05/12 09:07:59;;;;;;;6.00;2.97;;;11.90;99.90;;;;;;5059080;28;20638;-90
2021/05/12 09:10:27;;;;;;;3.47;3.17;;;11.80;99.90;;;;;;5060693;28;20658;-91
2021/05/12 09:12:56;;;;;;;5.20;3.10;;;11.90;99.90;;;;;;5067803;28;20665;-90
2021/05/12 09:15:24;;;;;;;5.50;3.47;;;12.10;99.90;;;;;;5075756;28;21129;-90
2021/05/12 09:17:53;;;;;;;4.47;3.07;;;12.20;99.90;;;;;;5082440;28;20628;-90
2021/05/12 09:20:36;;;;;;;9.03;3.43;;;12.10;99.90;;;;;;5077986;28;21255;-90
2021/05/12 09:23:17;;;;;;;9.07;5.07;;;12.20;99.90;;;;;;5064114;28;20667;-91
2021/05/12 09:25:56;;;;;;;4.40;2.70;;;12.20;99.90;;;;;;5063146;28;20699;-90
2021/05/12 09:28:29;;;;;;;5.30;3.20;;;12.40;99.90;;;;;;5064108;28;20980;-90
2021/05/12 09:31:07;;;;;;;3.20;2.60;;;12.40;99.90;;;;;;5067334;28;20701;-90
2021/05/12 09:33:37;;;;;;;2.67;2.47;;;12.30;99.90;;;;;;5067834;28;20641;-90
2021/05/12 09:36:06;;;;;;;3.23;2.70;;;12.20;99.90;;;;;;5064957;28;20680;-90
2021/05/12 09:38:34;;;;;;;3.60;2.50;;;12.40;99.90;;;;;;5065959;28;20605;-91
2021/05/12 09:41:03;;;;;;;7.20;2.80;;;12.50;99.90;;;;;;5067698;28;20635;-90
2021/05/12 09:43:31;;;;;;;7.20;3.53;;;12.60;99.90;;;;;;5065451;28;20674;-89
2021/05/12 09:46:20;;;;;;;2.90;2.33;;;12.60;99.90;;;;;;5060179;28;21361;-90
2021/05/12 09:48:48;;;;;;;4.27;2.90;;;12.40;99.90;;;;;;5061297;28;20695;-92
2021/05/12 09:51:20;;;;;;;3.80;2.47;;;12.60;99.90;;;;;;5085591;28;21031;-91
2021/05/12 09:54:05;;;;;;;3.80;2.43;;;12.70;99.90;;;;;;5079059;28;20628;-90
2021/05/12 09:56:50;;;;;;;2.63;2.43;;;12.60;99.90;;;;;;5064973;28;20660;-90
2021/05/12 09:59:20;;;;;;;3.33;2.70;;;12.80;99.90;;;;;;5061712;28;21184;-91
2021/05/12 10:01:54;;;;;;;4.60;2.60;;;12.80;99.90;;;;;;5059977;28;20660;-91
2021/05/12 10:04:38;;;;;;;3.07;2.67;;;13.10;99.90;;;;;;5064381;28;20723;-92
2021/05/12 10:07:20;;;;;;;3.90;2.53;;;13.10;99.90;;;;;;5063489;28;20979;-90
2021/05/12 10:09:49;;;;;;;3.50;2.27;;;13.10;99.90;;;;;;5061345;28;20618;-90
2021/05/12 10:12:19;;;;;;;5.23;3.47;;;12.90;99.90;;;;;;5071204;28;20709;-90
2021/05/12 10:14:55;;;;;;;2.33;2.10;;;13.00;99.90;;;;;;5065655;28;20736;-91
2021/05/12 10:17:26;;;;;;;4.03;2.60;;;13.00;99.90;;;;;;5064729;28;20657;-89
2021/05/12 10:19:54;;;;;;;3.47;2.90;;;12.80;99.90;;;;;;5069945;28;21209;-90
2021/05/12 10:22:26;;;;;;;6.07;3.60;;;12.90;99.90;;;;;;5071663;28;20649;-91
2021/05/12 10:24:53;;;;;;;6.40;2.83;;;13.00;99.90;;;;;;5064886;28;20720;-91
2021/05/12 10:27:26;;;;;;;7.00;3.27;;;13.10;99.90;;;;;;5062780;28;20656;-89
2021/05/12 10:29:55;;;;;;;3.10;2.57;;;13.10;99.90;;;;;;5066799;28;20647;-90
2021/05/12 10:32:24;;;;;;;3.70;3.20;;;13.10;99.90;;;;;;5073111;28;20657;-90
2021/05/12 10:35:06;;;;;;;3.13;2.70;;;13.10;99.90;;;;;;5067948;28;21225;-90
2021/05/12 10:37:36;;;;;;;3.57;2.40;;;13.00;99.90;;;;;;5068660;28;20621;-90
2021/05/12 10:40:21;;;;;;;2.83;2.63;;;13.10;99.90;;;;;;5077139;28;20650;-91
2021/05/12 10:42:58;;;;;;;4.80;2.97;;;13.20;99.90;;;;;;5064252;28;21361;-89
2021/05/12 10:45:54;;;;;;;6.63;2.93;;;13.20;99.90;;;;;;5067155;28;20731;-88
2021/05/12 10:48:48;;;;;;;3.73;2.87;;;13.20;99.90;;;;;;5063629;28;20700;-89
2021/05/12 10:51:33;;;;;;;4.27;3.87;;;13.20;99.90;;;;;;5069078;28;20681;-91
2021/05/12 10:54:03;;;;;;;5.60;3.07;;;13.20;99.90;;;;;;5069385;28;20617;-89
2021/05/12 10:56:36;;;;;;;3.90;2.23;;;13.10;99.90;;;;;;5069348;28;20762;-89
2021/05/12 10:59:05;;;;;;;4.83;2.97;;;13.20;99.90;;;;;;5069527;28;20626;-89
2021/05/12 11:01:52;;;;;;;5.40;3.73;;;13.20;99.90;;;;;;5066478;28;20692;-90
2021/05/12 11:04:21;;;;;;;3.37;3.00;;;13.10;99.90;;;;;;5065968;28;20729;-90
2021/05/12 11:07:03;;;;;;;3.53;3.20;;;13.10;99.90;;;;;;5070962;28;20764;-90
2021/05/12 11:09:50;;;;;;;4.70;3.03;;;13.10;99.90;;;;;;5070831;28;20645;-90
2021/05/12 11:12:32;;;;;;;5.10;3.30;;;13.10;99.90;;;;;;5073440;28;20662;-90
2021/05/12 11:15:06;;;;;;;3.57;2.60;;;13.20;99.90;;;;;;5071187;28;20637;-89
2021/05/12 11:17:53;;;;;;;2.40;2.20;;;13.20;99.90;;;;;;5067529;28;20714;-89
2021/05/12 11:20:35;;;;;;;6.67;2.37;;;13.20;99.90;;;;;;5068439;28;20644;-89
2021/05/12 11:23:15;;;;;;;5.57;2.70;;;13.10;99.90;;;;;;5077110;28;20662;-89
2021/05/12 11:25:50;;;;;;;3.77;2.70;;;13.10;99.90;;;;;;5071700;28;20625;-89
2021/05/12 11:31:38;;;;;;;4.47;2.60;;;13.20;99.90;;;;;;5076753;28;20636;-90
2021/05/12 11:34:19;;;;;;;3.47;2.73;;;13.20;99.90;;;;;;5074536;28;21122;-89
2021/05/12 11:36:46;;;;;;;7.90;4.03;;;13.30;99.90;;;;;;5076959;28;20665;-90
2021/05/12 11:39:13;;;;;;;4.10;2.87;;;13.40;99.90;;;;;;5080655;28;20621;-90
2021/05/12 11:41:41;;;;;;;4.30;2.90;;;13.20;99.90;;;;;;5085701;28;20625;-90
2021/05/12 11:44:09;;;;;;;9.17;3.00;;;13.50;99.90;;;;;;5091331;28;21196;-89
2021/05/12 11:46:39;;;;;;;3.37;2.60;;;13.90;99.90;;;;;;5089634;28;20653;-89
2021/05/12 11:49:14;;;;;;;5.20;3.00;;;13.90;99.90;;;;;;5088098;28;20736;-89
2021/05/12 11:51:43;;;;;;;4.00;2.40;;;14.00;99.90;;;;;;5089150;28;20644;-90
2021/05/12 11:54:16;;;;;;;3.43;2.47;;;14.00;99.90;;;;;;5091270;28;20621;-89
2021/05/12 11:56:44;;;;;;;3.10;2.50;;;13.90;99.90;;;;;;5087959;28;20668;-88
2021/05/12 11:59:20;;;;;;;3.67;2.60;;;14.10;99.90;;;;;;5087203;28;20634;-90
2021/05/12 12:01:54;;;;;;;3.03;2.10;;;14.50;99.90;;;;;;5088200;28;20624;-91
2021/05/12 12:04:25;;;;;;;6.17;2.53;;;14.70;99.90;;;;;;5086258;28;20674;-91
2021/05/12 12:06:55;;;;;;;3.13;2.30;;;14.50;99.90;;;;;;5082018;28;20621;-91
2021/05/12 12:09:23;;;;;;;4.50;2.30;;;14.70;99.90;;;;;;5088447;28;20581;-91
2021/05/12 12:11:50;;;;;;;5.43;2.33;;;14.80;99.90;;;;;;5086548;28;20663;-90
2021/05/12 12:14:17;;;;;;;6.40;2.77;;;14.70;99.90;;;;;;5077331;28;21162;-90
2021/05/12 12:16:47;;;;;;;3.60;2.20;;;14.70;99.90;;;;;;5068677;28;20725;-91
2021/05/12 12:19:18;;;;;;;3.93;2.30;;;14.90;99.90;;;;;;5070191;28;20671;-90
2021/05/12 12:21:51;;;;;;;4.20;2.57;;;14.80;99.90;;;;;;5087707;28;20674;-91
2021/05/12 12:24:22;;;;;;;4.50;2.73;;;15.00;99.90;;;;;;5071901;28;20688;-90
2021/05/12 12:26:53;;;;;;;6.33;2.30;;;14.80;99.90;;;;;;5070842;28;20631;-90
2021/05/12 12:29:21;;;;;;;5.30;2.80;;;15.10;99.90;;;;;;5069633;28;21158;-91
2021/05/12 12:31:56;;;;;;;5.13;2.73;;;15.00;99.90;;;;;;5071277;28;21224;-91
2021/05/12 12:34:28;;;;;;;3.20;2.90;;;14.90;99.90;;;;;;5077418;28;20820;-91
2021/05/12 12:37:04;;;;;;;4.67;2.70;;;14.70;99.90;;;;;;5086784;28;20656;-90
2021/05/12 12:39:52;;;;;;;3.13;2.30;;;14.80;99.90;;;;;;5082515;28;20684;-90
2021/05/12 12:42:25;;;;;;;4.67;2.67;;;14.60;99.90;;;;;;5083531;28;20762;-90
2021/05/12 12:45:01;;;;;;;4.90;2.70;;;14.90;99.90;;;;;;5082219;28;20644;-90
2021/05/12 12:47:29;;;;;;;4.00;2.40;;;15.00;99.90;;;;;;5077584;28;20710;-89
2021/05/12 12:49:57;;;;;;;6.20;2.07;;;14.80;99.90;;;;;;5080372;28;20624;-90
2021/05/12 12:52:35;;;;;;;6.00;2.80;;;14.80;99.90;;;;;;5082899;28;20653;-90
2021/05/12 12:55:07;;;;;;;7.07;2.47;;;14.60;99.90;;;;;;5086303;28;20695;-89
2021/05/12 12:57:39;;;;;;;4.67;2.67;;;14.70;99.90;;;;;;5085487;28;20637;-90
2021/05/12 13:00:19;;;;;;;8.60;3.57;;;14.70;99.90;;;;;;5084334;28;20629;-89
2021/05/12 13:02:57;;;;;;;2.83;1.80;;;14.70;99.90;;;;;;5078368;28;20650;-89
2021/05/12 13:05:31;;;;;;;3.27;2.03;;;14.90;99.90;;;;;;5081137;28;20756;-90